Mosca, CO (81146)

8:15 PM MDT on October 20, 2014 (GMT -0600)
Hooper | Change Station
CLOSE
Current Station
Personal Weather Station
Location: Hooper, CO
Elevation: 7559 ft
Nearby Weather Stations

Elev 7559 ft 37.73 °N, 105.87 °W | Updated 5 seconds ago

Overcast
Overcast
50.5 °F
Feels Like 50.5 °F
N
0.0
Wind Variable Wind from SSW
Gusts 0.0 mph

Today
High -- | Low -- °F
--% Chance of Precip.
Yesterday
High -- | Low -- °F
Precip. -- in
7:15 AM 6:18 PM
Waning Crescent, 8% visible
Pressure 30.10 in
Visibility 10.0 miles
Clouds Scattered Clouds 8000 ft
Overcast 10000 ft
Dew Point 36 °F
Humidity 58%
Rainfall 0.00 in
Snow Depth Not available.
UV 0 out of 12
Pollen 2.30 out of 12
Air Quality Not available.
Flu Activity Sporadic
METAR KALS 210152Z AUTO 36008KT 10SM SCT080 OVC100 12/03 A3023 RMK AO2 SLP193 T01220028

More Conditions Fewer Conditions

Pressure 30.10 in
Visibility 10.0 miles
Clouds Scattered Clouds 8000 ft
Overcast 10000 ft
Dew Point 36 °F
Humidity 58%
Rainfall 0.00 in
Snow Depth Not available.
UV 0 out of 12
Pollen 2.30 out of 12
Air Quality Not available.
Flu Activity Sporadic
METAR KALS 210152Z AUTO 36008KT 10SM SCT080 OVC100 12/03 A3023 RMK AO2 SLP193 T01220028

More Conditions Fewer Conditions

10-Day Weather Forecast

Almanac

Astronomy

Oct. 20, 2014 Rise Set
Actual Time 7:15 AM MDT 6:18 PM MDT
Civil Twilight 6:49 AM MDT 6:45 PM MDT
Nautical Twilight 6:18 AM MDT 7:15 PM MDT
Astronomical Twilight 5:48 AM MDT 7:45 PM MDT
Moon 4:10 AM MDT (10/20) 4:39 PM MDT (10/20)
Length of Visible Light 11h 55m
Length of Day
11h 02m
Tomorrow will be 2m 16s shorter.
Waning Crescent, 8% of the Moon is Illuminated
Today
Waning Crescent
Oct 23
New
Oct 30
First Quarter
Nov 6
Full
Nov 14
Last Quarter

Today's Extremes

State Highs State Lows

Community

WunderPhotos

Upload Photos

1,763,572 photos uploaded!

Nearby

Snow Depth

Station Depth Elevation
Apishapa 0 in 10000 ft
Cumbres Trestle 0 in 10020 ft
Glen Cove 1 in 11460 ft
Park Cone 0 in 9600 ft
Red Mountain Pass 0 in 11150 ft

Earthquake Activity

City Distance Mag. Time & Date
Trinidad, Colorado 57 miles 2.5 10:01 PM MDT
2014-10-19
Trinidad, Colorado 61 miles 3.8 11:01 AM MDT
2014-10-17
Minimum magnitude displayed is 2.5.

Coastal Water Temperatures

Place Temperature
No Stations Reporting

Nearby Weather Stations